CheckWX is a tool to help pilots better visualize weather data.  It is not intended as a substitute for an official pre-flight weather briefing.

12:51:23 UTC

HKML METAR
Malindi Airport
Malindi, Kenya
Current

51 mins ago

HKML 171200Z 21020KT 9999 FEW022 BKN250 29/23 Q1015
Observed
Jun-17 @ 12:00 UTC
Wind
  • 210° at 20 KTS
Visibility
10,000+ meters
Flight Rules
VFR
Cloud Levels
  • Few at 2,200' AGL
  • Broken at 25,000' AGL
Temperature
29°C / 84°F
Dewpoint
23°C / 73°F
Heat Index
32°C / 90°F
Humidity
70%
Altimeter
29.97" Hg
Pressure
1014.92 hPa
Previous

2 hours ago

HKML 171100Z 21018KT 9999 FEW022 SCT250 29/23 Q1016
Observed
Jun-17 @ 11:00 UTC
Wind
  • 210° at 18 KTS
Visibility
10,000+ meters
Flight Rules
VFR
Cloud Levels
  • Few at 2,200' AGL
  • Scattered at 25,000' AGL
Temperature
29°C / 84°F
Dewpoint
23°C / 73°F
Heat Index
32°C / 90°F
Humidity
70%
Altimeter
30" Hg
Pressure
1015.92 hPa
Previous

3 hours ago

HKML 171000Z 20020KT 9999 FEW022 SCT250 28/23 Q1017
Observed
Jun-17 @ 10:00 UTC
Wind
  • 200° at 20 KTS
Visibility
10,000+ meters
Flight Rules
VFR
Cloud Levels
  • Few at 2,200' AGL
  • Scattered at 25,000' AGL
Temperature
28°C / 82°F
Dewpoint
23°C / 73°F
Heat Index
31°C / 87°F
Humidity
74%
Altimeter
30.03" Hg
Pressure
1016.92 hPa